createdAt,value
2018-01-19T00:00:05.703Z,0
2018-01-19T00:01:14.526Z,0
2018-01-19T00:02:23.349Z,0
2018-01-19T00:03:32.175Z,0
2018-01-19T00:04:40.997Z,0
2018-01-19T00:05:49.821Z,0
2018-01-19T00:06:58.746Z,0
2018-01-19T00:08:07.571Z,0
2018-01-19T00:09:16.394Z,0
2018-01-19T00:10:25.216Z,0
2018-01-19T00:11:34.037Z,0
2018-01-19T00:12:43.012Z,0
2018-01-19T00:13:51.838Z,0
2018-01-19T00:15:00.934Z,0
2018-01-19T00:16:09.757Z,0
2018-01-19T00:17:18.579Z,0
2018-01-19T00:18:27.985Z,0
2018-01-19T00:19:36.810Z,0
2018-01-19T00:20:45.636Z,0
2018-01-19T00:21:54.459Z,0
2018-01-19T00:23:03.282Z,0
2018-01-19T00:24:12.207Z,0
2018-01-19T00:25:21.031Z,0
2018-01-19T00:26:30.137Z,0
2018-01-19T00:27:38.964Z,0
2018-01-19T00:28:48.059Z,0
2018-01-19T00:29:57.033Z,0
2018-01-19T00:31:05.853Z,0
2018-01-19T00:32:14.675Z,0
2018-01-19T00:33:23.500Z,0
2018-01-19T00:34:32.322Z,0
2018-01-19T00:35:41.300Z,0
2018-01-19T00:36:50.125Z,0
2018-01-19T00:37:58.949Z,0
2018-01-19T00:39:07.774Z,0
2018-01-19T00:40:16.596Z,0
2018-01-19T00:41:25.521Z,0
2018-01-19T00:42:34.345Z,0
2018-01-19T00:43:43.169Z,0
2018-01-19T00:44:51.992Z,0
2018-01-19T00:46:00.814Z,0
2018-01-19T00:47:09.640Z,0
2018-01-19T00:48:18.463Z,0
2018-01-19T00:49:27.562Z,0
2018-01-19T00:50:36.387Z,0
2018-01-19T00:51:45.212Z,0
2018-01-19T00:52:54.186Z,0
2018-01-19T00:54:03.012Z,0
2018-01-19T00:55:11.833Z,0
2018-01-19T00:56:20.657Z,0
2018-01-19T00:57:29.477Z,0
2018-01-19T00:58:38.301Z,0
2018-01-19T00:59:47.125Z,0
2018-01-19T01:00:55.948Z,0
2018-01-19T01:02:04.772Z,0
2018-01-19T01:03:13.594Z,0
2018-01-19T01:04:22.517Z,0
2018-01-19T01:05:31.340Z,0
2018-01-19T01:06:40.164Z,0
2018-01-19T01:07:48.988Z,0
2018-01-19T01:08:57.811Z,0
2018-01-19T01:10:06.784Z,0
2018-01-19T01:11:15.884Z,0
2018-01-19T01:12:24.984Z,0
2018-01-19T01:13:33.807Z,0
2018-01-19T01:14:42.626Z,0
2018-01-19T01:15:51.449Z,0
2018-01-19T01:17:00.273Z,0
2018-01-19T01:18:09.096Z,0
2018-01-19T01:19:17.921Z,0
2018-01-19T01:20:26.744Z,0
2018-01-19T01:21:35.768Z,0
2018-01-19T01:22:44.592Z,0
2018-01-19T01:23:53.416Z,0
2018-01-19T01:25:02.239Z,0
2018-01-19T01:26:11.063Z,0
2018-01-19T01:27:20.290Z,0
2018-01-19T01:28:29.117Z,0
2018-01-19T01:29:37.937Z,0
2018-01-19T01:30:46.758Z,0
2018-01-19T01:31:55.584Z,0
2018-01-19T01:33:04.407Z,0
2018-01-19T01:34:13.502Z,0
2018-01-19T01:35:22.327Z,0
2018-01-19T01:36:31.147Z,0
2018-01-19T01:37:39.972Z,0
2018-01-19T01:38:48.945Z,0
2018-01-19T01:39:57.919Z,0
2018-01-19T01:41:07.024Z,0
2018-01-19T01:42:15.847Z,0
2018-01-19T01:43:24.950Z,0
2018-01-19T01:44:33.776Z,0
2018-01-19T01:45:42.600Z,0
2018-01-19T01:46:51.424Z,0
2018-01-19T01:48:00.248Z,0
2018-01-19T01:49:09.071Z,0
2018-01-19T01:50:18.046Z,0
2018-01-19T01:51:26.872Z,0
2018-01-19T01:52:35.696Z,0
2018-01-19T01:53:44.518Z,0
2018-01-19T01:54:53.344Z,0
2018-01-19T01:56:02.267Z,0
2018-01-19T01:57:11.091Z,0
2018-01-19T01:58:20.189Z,0
2018-01-19T01:59:29.015Z,0
2018-01-19T02:00:37.837Z,0
2018-01-19T02:01:46.959Z,0
2018-01-19T02:02:55.781Z,0
2018-01-19T02:04:04.607Z,0
2018-01-19T02:05:13.430Z,0
2018-01-19T02:06:22.254Z,0
2018-01-19T02:07:31.130Z,0
2018-01-19T02:08:39.952Z,0
2018-01-19T02:09:48.776Z,0
2018-01-19T02:10:57.599Z,0
2018-01-19T02:12:06.422Z,0
2018-01-19T02:13:15.247Z,0
2018-01-19T02:14:24.071Z,0
2018-01-19T02:15:32.896Z,0
2018-01-19T02:16:41.720Z,0
2018-01-19T02:17:50.560Z,0
2018-01-19T02:18:59.770Z,0
2018-01-19T02:20:08.592Z,0
2018-01-19T02:21:17.418Z,0
2018-01-19T02:22:26.521Z,0
2018-01-19T02:23:35.618Z,0
2018-01-19T02:24:44.538Z,0
2018-01-19T02:25:53.362Z,0
2018-01-19T02:27:02.464Z,0
2018-01-19T02:28:11.289Z,0
2018-01-19T02:29:20.114Z,0
2018-01-19T02:30:29.037Z,0
2018-01-19T02:31:37.863Z,0
2018-01-19T02:32:46.689Z,0
2018-01-19T02:33:55.517Z,0
2018-01-19T02:35:04.340Z,0
2018-01-19T02:36:13.264Z,0
2018-01-19T02:37:22.088Z,0
2018-01-19T02:38:31.195Z,0
2018-01-19T02:39:40.019Z,0
2018-01-19T02:40:48.842Z,0
2018-01-19T02:41:57.918Z,0
2018-01-19T02:43:06.739Z,0
2018-01-19T02:44:15.563Z,0
2018-01-19T02:45:24.387Z,0
2018-01-19T02:46:33.210Z,0
2018-01-19T02:47:42.287Z,0
2018-01-19T02:48:51.111Z,0
2018-01-19T02:49:59.934Z,0
2018-01-19T02:51:08.761Z,0
2018-01-19T02:52:17.584Z,0
2018-01-19T02:53:26.510Z,0
2018-01-19T02:54:35.337Z,0
2018-01-19T02:55:44.162Z,0
2018-01-19T02:56:52.985Z,0
2018-01-19T02:58:01.809Z,0
2018-01-19T02:59:10.633Z,0
2018-01-19T03:00:19.457Z,0
2018-01-19T03:01:28.283Z,0
2018-01-19T03:02:37.106Z,0
2018-01-19T03:03:45.933Z,0
2018-01-19T03:04:54.758Z,0
2018-01-19T03:06:03.583Z,0
2018-01-19T03:07:12.406Z,0
2018-01-19T03:08:21.230Z,0
2018-01-19T03:09:30.057Z,0
2018-01-19T03:10:38.883Z,0
2018-01-19T03:11:47.706Z,0
2018-01-19T03:12:56.532Z,0
2018-01-19T03:14:05.356Z,0
2018-01-19T03:15:14.455Z,0
2018-01-19T03:16:23.579Z,0
2018-01-19T03:17:32.681Z,0
2018-01-19T03:18:41.504Z,0
2018-01-19T03:19:50.329Z,0
2018-01-19T03:20:59.425Z,0
2018-01-19T03:22:08.550Z,0
2018-01-19T03:23:17.374Z,0
2018-01-19T03:24:26.203Z,0
2018-01-19T03:25:35.024Z,0
2018-01-19T03:26:43.849Z,0
2018-01-19T03:27:52.775Z,0
2018-01-19T03:29:01.599Z,0
2018-01-19T03:30:10.976Z,0
2018-01-19T03:31:19.799Z,0
2018-01-19T03:32:28.623Z,0
2018-01-19T03:33:37.748Z,0
2018-01-19T03:34:46.573Z,0
2018-01-19T03:35:55.398Z,0
2018-01-19T03:37:04.223Z,0
2018-01-19T03:38:13.047Z,0
2018-01-19T03:39:22.171Z,0
2018-01-19T03:40:30.997Z,0
2018-01-19T03:41:39.821Z,0
2018-01-19T03:42:48.645Z,0
2018-01-19T03:43:57.741Z,0
2018-01-19T03:45:06.866Z,0
2018-01-19T03:46:15.688Z,0
2018-01-19T03:47:24.512Z,0
2018-01-19T03:48:33.338Z,0
2018-01-19T03:49:42.161Z,0
2018-01-19T03:50:51.388Z,0
2018-01-19T03:52:00.212Z,0
2018-01-19T03:53:09.036Z,0
2018-01-19T03:54:17.860Z,0
2018-01-19T03:55:26.686Z,0
2018-01-19T03:56:35.760Z,0
2018-01-19T03:57:44.583Z,0
2018-01-19T03:58:53.406Z,0
2018-01-19T04:00:02.514Z,0
2018-01-19T04:01:11.338Z,0
2018-01-19T04:02:20.462Z,0
2018-01-19T04:03:29.286Z,0
2018-01-19T04:04:38.110Z,0
2018-01-19T04:05:46.934Z,0
2018-01-19T04:06:55.756Z,0
2018-01-19T04:08:04.679Z,0
2018-01-19T04:09:13.504Z,0
2018-01-19T04:10:22.327Z,0
2018-01-19T04:11:31.151Z,0
2018-01-19T04:12:39.974Z,0
2018-01-19T04:13:48.804Z,0
2018-01-19T04:14:57.896Z,0
2018-01-19T04:16:06.721Z,0
2018-01-19T04:17:15.544Z,0
2018-01-19T04:18:24.369Z,0
2018-01-19T04:19:33.193Z,0
2018-01-19T04:20:42.022Z,0
2018-01-19T04:21:50.843Z,0
2018-01-19T04:22:59.668Z,0
2018-01-19T04:24:08.490Z,0
2018-01-19T04:25:17.715Z,0
2018-01-19T04:26:26.536Z,0
2018-01-19T04:27:35.361Z,0
2018-01-19T04:28:44.184Z,0
2018-01-19T04:29:53.007Z,0
2018-01-19T04:31:01.929Z,0
2018-01-19T04:32:10.753Z,0
2018-01-19T04:33:19.579Z,0
2018-01-19T04:34:28.412Z,0
2018-01-19T04:35:37.509Z,0
2018-01-19T04:36:46.384Z,0
2018-01-19T04:37:55.209Z,0
2018-01-19T04:39:04.036Z,0
2018-01-19T04:40:12.859Z,0
2018-01-19T04:41:21.961Z,0
2018-01-19T04:42:30.785Z,0
2018-01-19T04:43:39.610Z,0
2018-01-19T04:44:48.707Z,0
2018-01-19T04:45:57.530Z,0
2018-01-19T04:47:06.356Z,0
2018-01-19T04:48:15.480Z,0
2018-01-19T04:49:24.303Z,0
2018-01-19T04:50:33.131Z,0
2018-01-19T04:51:41.954Z,0
2018-01-19T04:52:50.777Z,0
2018-01-19T04:53:59.751Z,0
2018-01-19T04:55:08.577Z,0
2018-01-19T04:56:17.671Z,0
2018-01-19T04:57:26.495Z,0
2018-01-19T04:58:35.320Z,0
2018-01-19T04:59:44.144Z,0
2018-01-19T05:00:52.968Z,0
2018-01-19T05:02:01.792Z,0
2018-01-19T05:03:10.615Z,0
2018-01-19T05:04:19.720Z,0
2018-01-19T05:05:28.545Z,0
2018-01-19T05:06:37.368Z,0
2018-01-19T05:07:46.196Z,0
2018-01-19T05:08:55.020Z,0
2018-01-19T05:10:04.119Z,0
2018-01-19T05:11:12.992Z,0
2018-01-19T05:12:21.816Z,0
2018-01-19T05:13:30.640Z,0
2018-01-19T05:14:39.465Z,0
2018-01-19T05:15:48.285Z,0
2018-01-19T05:16:57.209Z,0
2018-01-19T05:18:06.033Z,0
2018-01-19T05:19:14.858Z,0
2018-01-19T05:20:23.680Z,0
2018-01-19T05:21:32.502Z,0
2018-01-19T05:22:41.727Z,0
2018-01-19T05:23:50.549Z,0
2018-01-19T05:24:59.377Z,0
2018-01-19T05:26:08.199Z,0
2018-01-19T05:27:17.024Z,0
2018-01-19T05:28:25.948Z,0
2018-01-19T05:29:34.771Z,0
2018-01-19T05:30:43.596Z,0
2018-01-19T05:31:52.418Z,0
2018-01-19T05:33:01.243Z,0
2018-01-19T05:34:10.636Z,0
2018-01-19T05:35:19.459Z,0
2018-01-19T05:36:28.284Z,0
2018-01-19T05:37:37.107Z,0
2018-01-19T05:38:46.028Z,0
2018-01-19T05:39:55.154Z,0
2018-01-19T05:41:03.978Z,0
2018-01-19T05:42:12.804Z,0
2018-01-19T05:43:21.629Z,0
2018-01-19T05:44:30.466Z,0
2018-01-19T05:45:39.278Z,0
2018-01-19T05:46:48.101Z,0
2018-01-19T05:47:56.924Z,0
2018-01-19T05:49:05.748Z,0
2018-01-19T05:50:14.572Z,0
2018-01-19T05:51:23.496Z,0
2018-01-19T05:52:32.318Z,0
2018-01-19T05:53:41.418Z,0
2018-01-19T05:54:50.512Z,0
2018-01-19T05:55:59.337Z,0
2018-01-19T05:57:08.163Z,0
2018-01-19T05:58:16.988Z,0
2018-01-19T05:59:25.825Z,0
2018-01-19T06:00:34.657Z,0
2018-01-19T06:01:43.481Z,0
2018-01-19T06:02:52.354Z,0
2018-01-19T06:04:01.179Z,0
2018-01-19T06:05:10.005Z,0
2018-01-19T06:06:18.829Z,0
2018-01-19T06:07:27.652Z,0
2018-01-19T06:08:36.630Z,0
2018-01-19T06:09:45.450Z,0
2018-01-19T06:10:54.546Z,0
2018-01-19T06:12:03.370Z,0
2018-01-19T06:13:12.193Z,0
2018-01-19T06:14:21.122Z,0
2018-01-19T06:15:29.940Z,0
2018-01-19T06:16:38.764Z,0
2018-01-19T06:17:47.587Z,0
2018-01-19T06:18:56.416Z,0
2018-01-19T06:20:05.242Z,0
2018-01-19T06:21:14.065Z,0
2018-01-19T06:22:22.888Z,0
2018-01-19T06:23:31.709Z,0
2018-01-19T06:24:40.533Z,0
2018-01-19T06:25:49.458Z,0
2018-01-19T06:26:58.283Z,0
2018-01-19T06:28:07.106Z,0
2018-01-19T06:29:15.930Z,0
2018-01-19T06:30:25.027Z,0
2018-01-19T06:31:33.853Z,0
2018-01-19T06:32:42.676Z,0
2018-01-19T06:33:51.503Z,0
2018-01-19T06:35:00.601Z,0
2018-01-19T06:36:09.425Z,0
2018-01-19T06:37:18.349Z,0
2018-01-19T06:38:27.172Z,0
2018-01-19T06:39:36.022Z,0
2018-01-19T06:40:44.828Z,0
2018-01-19T06:41:53.651Z,0
2018-01-19T06:43:02.880Z,0
2018-01-19T06:44:11.975Z,0
2018-01-19T06:45:20.797Z,0
2018-01-19T06:46:29.623Z,0
2018-01-19T06:47:38.443Z,0
2018-01-19T06:48:47.943Z,0
2018-01-19T06:49:56.767Z,0
2018-01-19T06:51:05.593Z,0
2018-01-19T06:52:14.416Z,0
2018-01-19T06:53:23.239Z,0
2018-01-19T06:54:32.113Z,0
2018-01-19T06:55:40.939Z,0
2018-01-19T06:56:49.761Z,0
2018-01-19T06:57:58.585Z,0
2018-01-19T06:59:07.410Z,0
2018-01-19T07:00:16.380Z,0
2018-01-19T07:01:25.205Z,0
2018-01-19T07:02:34.026Z,0
2018-01-19T07:03:42.849Z,0
2018-01-19T07:04:51.671Z,0
2018-01-19T07:06:00.745Z,0
2018-01-19T07:07:09.571Z,0
2018-01-19T07:08:18.400Z,0
2018-01-19T07:09:27.223Z,0
2018-01-19T07:10:36.046Z,0
2018-01-19T07:11:44.921Z,0
2018-01-19T07:12:53.752Z,0
2018-01-19T07:14:03.121Z,0
2018-01-19T07:15:12.218Z,0
2018-01-19T07:16:21.324Z,0
2018-01-19T07:17:30.294Z,0
2018-01-19T07:18:39.119Z,0
2018-01-19T07:19:47.946Z,0
2018-01-19T07:20:57.039Z,0
2018-01-19T07:22:05.862Z,0
2018-01-19T07:23:14.736Z,0
2018-01-19T07:24:23.560Z,0
2018-01-19T07:25:32.383Z,0
2018-01-19T07:26:41.207Z,0
2018-01-19T07:27:50.030Z,0
2018-01-19T07:28:59.004Z,0
2018-01-19T07:30:07.827Z,0
2018-01-19T07:31:16.652Z,0
2018-01-19T07:32:25.474Z,0
2018-01-19T07:33:34.299Z,0
2018-01-19T07:34:43.172Z,0
2018-01-19T07:35:51.995Z,0
2018-01-19T07:37:00.819Z,0
2018-01-19T07:38:09.933Z,0
2018-01-19T07:39:18.758Z,0
2018-01-19T07:40:27.732Z,0
2018-01-19T07:41:36.557Z,0
2018-01-19T07:42:45.380Z,0
2018-01-19T07:43:54.205Z,0
2018-01-19T07:45:03.028Z,0
2018-01-19T07:46:12.249Z,0
2018-01-19T07:47:21.075Z,0
2018-01-19T07:48:29.900Z,0
2018-01-19T07:49:39.003Z,0
2018-01-19T07:50:47.828Z,0
2018-01-19T07:51:56.751Z,0
2018-01-19T07:53:05.573Z,0
2018-01-19T07:54:14.398Z,0
2018-01-19T07:55:23.222Z,0
2018-01-19T07:56:32.047Z,0
2018-01-19T07:57:41.144Z,0
2018-01-19T07:58:49.972Z,0
2018-01-19T07:59:58.793Z,0
2018-01-19T08:01:07.619Z,0
2018-01-19T08:02:16.444Z,0
2018-01-19T08:03:25.420Z,0
2018-01-19T08:04:34.244Z,0
2018-01-19T08:05:43.071Z,0
2018-01-19T08:06:51.891Z,0
2018-01-19T08:08:00.714Z,0
2018-01-19T08:09:10.092Z,0
2018-01-19T08:10:18.914Z,0
2018-01-19T08:11:27.739Z,0
2018-01-19T08:12:36.564Z,0
2018-01-19T08:13:45.389Z,0
2018-01-19T08:14:54.461Z,0
2018-01-19T08:16:03.286Z,0
2018-01-19T08:17:12.108Z,0
2018-01-19T08:18:20.931Z,0
2018-01-19T08:19:29.755Z,0
2018-01-19T08:20:38.629Z,0
2018-01-19T08:21:47.455Z,0
2018-01-19T08:22:56.283Z,0
2018-01-19T08:24:05.104Z,0
2018-01-19T08:25:13.927Z,0
2018-01-19T08:26:22.804Z,0
2018-01-19T08:27:31.627Z,0
2018-01-19T08:28:40.454Z,0
2018-01-19T08:29:49.553Z,0
2018-01-19T08:30:58.378Z,0
2018-01-19T08:32:07.201Z,0
2018-01-19T08:33:16.028Z,0
2018-01-19T08:34:24.852Z,0
2018-01-19T08:35:33.677Z,0
2018-01-19T08:36:42.772Z,0
2018-01-19T08:37:51.899Z,0
2018-01-19T08:39:00.724Z,0
2018-01-19T08:40:09.546Z,0
2018-01-19T08:41:18.372Z,0
2018-01-19T08:42:27.474Z,0
2018-01-19T08:43:36.348Z,0
2018-01-19T08:44:45.173Z,0
2018-01-19T08:45:54.000Z,0
2018-01-19T08:47:02.827Z,0
2018-01-19T08:48:11.651Z,0
2018-01-19T08:49:20.626Z,0
2018-01-19T08:50:29.453Z,0
2018-01-19T08:51:38.317Z,0
2018-01-19T08:52:47.100Z,0
2018-01-19T08:53:55.926Z,0
2018-01-19T08:55:05.003Z,0
2018-01-19T08:56:14.101Z,0
2018-01-19T08:57:22.927Z,0
2018-01-19T08:58:31.756Z,0
2018-01-19T08:59:40.582Z,0
2018-01-19T09:00:49.557Z,0
2018-01-19T09:01:58.380Z,0
2018-01-19T09:03:07.203Z,0
2018-01-19T09:04:16.029Z,0
2018-01-19T09:05:24.855Z,0
2018-01-19T09:06:34.082Z,0
2018-01-19T09:07:42.908Z,0
2018-01-19T09:08:51.734Z,0
2018-01-19T09:10:00.558Z,0
2018-01-19T09:11:09.384Z,0
2018-01-19T09:12:18.262Z,0
2018-01-19T09:13:27.359Z,0
2018-01-19T09:14:36.184Z,0
2018-01-19T09:15:45.010Z,0
2018-01-19T09:16:53.835Z,0
2018-01-19T09:18:02.810Z,0
2018-01-19T09:19:11.636Z,0
2018-01-19T09:20:20.460Z,0
2018-01-19T09:21:29.284Z,0
2018-01-19T09:22:38.384Z,0
2018-01-19T09:23:47.357Z,0
2018-01-19T09:24:56.181Z,0
2018-01-19T09:26:05.007Z,0
2018-01-19T09:27:13.832Z,0
2018-01-19T09:28:22.657Z,0
2018-01-19T09:29:31.631Z,0
2018-01-19T09:30:40.461Z,0
2018-01-19T09:31:49.285Z,0
2018-01-19T09:32:58.387Z,0
2018-01-19T09:34:07.212Z,0
2018-01-19T09:35:16.438Z,0
2018-01-19T09:36:25.265Z,0
2018-01-19T09:37:34.089Z,0
2018-01-19T09:38:42.914Z,0
2018-01-19T09:39:51.738Z,0
2018-01-19T09:41:00.564Z,0
2018-01-19T09:42:09.388Z,0
2018-01-19T09:43:18.215Z,0
2018-01-19T09:44:27.064Z,0
2018-01-19T09:45:35.866Z,0
2018-01-19T09:46:44.841Z,0
2018-01-19T09:47:53.670Z,0
2018-01-19T09:49:02.496Z,0
2018-01-19T09:50:11.324Z,0
2018-01-19T09:51:20.423Z,0
2018-01-19T09:52:29.349Z,0
2018-01-19T09:53:38.176Z,0
2018-01-19T09:54:47.003Z,0
2018-01-19T09:55:55.827Z,0
2018-01-19T09:57:04.656Z,0
2018-01-19T09:58:13.881Z,0
2018-01-19T09:59:22.706Z,0
2018-01-19T10:00:31.533Z,0
2018-01-19T10:01:40.358Z,0
2018-01-19T10:02:49.185Z,0
2018-01-19T10:03:58.109Z,0
2018-01-19T10:05:06.936Z,0
2018-01-19T10:06:15.762Z,0
2018-01-19T10:07:24.588Z,0
2018-01-19T10:08:33.423Z,0
2018-01-19T10:09:42.521Z,0
2018-01-19T10:10:51.621Z,0
2018-01-19T10:12:00.448Z,0
2018-01-19T10:13:09.554Z,0
2018-01-19T10:14:18.653Z,0
2018-01-19T10:15:27.529Z,0
2018-01-19T10:16:36.354Z,0
2018-01-19T10:17:45.183Z,0
2018-01-19T10:18:54.334Z,0
2018-01-19T10:20:03.104Z,0
2018-01-19T10:21:12.081Z,0
2018-01-19T10:22:20.907Z,0
2018-01-19T10:23:29.731Z,0
2018-01-19T10:24:38.561Z,0
2018-01-19T10:25:47.384Z,0
2018-01-19T10:26:56.209Z,0
2018-01-19T10:28:05.034Z,0
2018-01-19T10:29:13.861Z,0
2018-01-19T10:30:22.686Z,0
2018-01-19T10:31:31.518Z,0
2018-01-19T10:32:40.347Z,0
2018-01-19T10:33:49.172Z,0
2018-01-19T10:34:57.997Z,0
2018-01-19T10:36:06.823Z,0
2018-01-19T10:37:15.650Z,0
2018-01-19T10:38:24.497Z,0
2018-01-19T10:39:33.303Z,0
2018-01-19T10:40:42.134Z,0
2018-01-19T10:41:50.961Z,0
2018-01-19T10:43:00.162Z,0
2018-01-19T10:44:08.988Z,0
2018-01-19T10:45:17.816Z,0
2018-01-19T10:46:26.642Z,0
2018-01-19T10:47:35.469Z,0
2018-01-19T10:48:44.445Z,0
2018-01-19T10:49:53.272Z,0
2018-01-19T10:51:02.096Z,0
2018-01-19T10:52:10.922Z,0
2018-01-19T10:53:19.746Z,0
2018-01-19T10:54:28.622Z,0
2018-01-19T10:55:37.449Z,0
2018-01-19T10:56:46.275Z,0
2018-01-19T10:57:55.099Z,0
2018-01-19T10:59:03.926Z,0
2018-01-19T11:00:12.750Z,0
2018-01-19T11:01:21.859Z,0
2018-01-19T11:02:30.675Z,0
2018-01-19T11:03:39.500Z,0
2018-01-19T11:04:48.604Z,0
2018-01-19T11:05:57.432Z,0
2018-01-19T11:07:06.258Z,0
2018-01-19T11:08:15.085Z,0
2018-01-19T11:09:23.910Z,0
2018-01-19T11:10:32.737Z,0
2018-01-19T11:11:41.864Z,0
2018-01-19T11:12:50.689Z,0
2018-01-19T11:13:59.518Z,0
2018-01-19T11:15:08.346Z,0
2018-01-19T11:16:17.174Z,0
2018-01-19T11:17:26.429Z,0
2018-01-19T11:18:35.532Z,0
2018-01-19T11:19:44.359Z,0
2018-01-19T11:20:53.187Z,0
2018-01-19T11:22:02.293Z,0
2018-01-19T11:23:11.119Z,0
2018-01-19T11:24:19.946Z,0
2018-01-19T11:25:28.774Z,0
2018-01-19T11:26:37.651Z,0
2018-01-19T11:27:46.478Z,0
2018-01-19T11:28:55.454Z,0
2018-01-19T11:30:04.281Z,0
2018-01-19T11:31:13.110Z,0
2018-01-19T11:32:21.936Z,0
2018-01-19T11:33:30.765Z,0
2018-01-19T11:34:39.588Z,0
2018-01-19T11:35:48.414Z,0
2018-01-19T11:36:57.243Z,0
2018-01-19T11:38:06.071Z,0
2018-01-19T11:39:14.897Z,0
2018-01-19T11:40:23.774Z,0
2018-01-19T11:41:32.600Z,0
2018-01-19T11:42:41.427Z,0
2018-01-19T11:43:50.256Z,0
2018-01-19T11:44:59.083Z,0
2018-01-19T11:46:08.208Z,0
2018-01-19T11:47:17.037Z,0
2018-01-19T11:48:25.863Z,0
2018-01-19T11:49:34.689Z,0
2018-01-19T11:50:43.518Z,0
2018-01-19T11:51:52.595Z,0
2018-01-19T11:53:01.422Z,0
2018-01-19T11:54:10.249Z,0
2018-01-19T11:55:19.348Z,0
2018-01-19T11:56:28.176Z,0
2018-01-19T11:57:37.303Z,0
2018-01-19T11:58:46.404Z,0
2018-01-19T11:59:55.229Z,0
2018-01-19T12:01:04.332Z,0
2018-01-19T12:02:13.161Z,0
2018-01-19T12:03:22.090Z,0
2018-01-19T12:04:30.917Z,0
2018-01-19T12:05:39.795Z,0
2018-01-19T12:06:48.622Z,0
2018-01-19T12:07:57.448Z,0
2018-01-19T12:09:06.277Z,0
2018-01-19T12:10:15.101Z,0
2018-01-19T12:11:23.928Z,0
2018-01-19T12:12:32.754Z,0
2018-01-19T12:13:41.581Z,0
2018-01-19T12:14:50.509Z,0
2018-01-19T12:15:59.336Z,0
2018-01-19T12:17:08.165Z,0
2018-01-19T12:18:16.991Z,0
2018-01-19T12:19:25.818Z,0
2018-01-19T12:20:34.947Z,0
2018-01-19T12:21:43.775Z,0
2018-01-19T12:22:52.603Z,0
2018-01-19T12:24:01.429Z,0
2018-01-19T12:25:10.255Z,0
2018-01-19T12:26:19.183Z,0
2018-01-19T12:27:28.287Z,0
2018-01-19T12:28:37.386Z,0
2018-01-19T12:29:46.222Z,0
2018-01-19T12:30:55.049Z,0
2018-01-19T12:32:04.125Z,0
2018-01-19T12:33:12.958Z,0
2018-01-19T12:34:21.779Z,0
2018-01-19T12:35:30.606Z,0
2018-01-19T12:36:39.432Z,0
2018-01-19T12:37:48.411Z,0
2018-01-19T12:38:57.238Z,0
2018-01-19T12:40:06.067Z,0
2018-01-19T12:41:15.169Z,0
2018-01-19T12:42:23.996Z,0
2018-01-19T12:43:32.922Z,0
2018-01-19T12:44:41.749Z,0
2018-01-19T12:45:50.581Z,0
2018-01-19T12:46:59.401Z,0
2018-01-19T12:48:08.230Z,0
2018-01-19T12:49:17.308Z,0
2018-01-19T12:50:26.136Z,0
2018-01-19T12:51:35.245Z,0
2018-01-19T12:52:44.076Z,0
2018-01-19T12:53:52.902Z,0
2018-01-19T12:55:01.738Z,0
2018-01-19T12:56:10.837Z,0
2018-01-19T12:57:19.666Z,0
2018-01-19T12:58:28.497Z,0
2018-01-19T12:59:37.325Z,0
2018-01-19T13:00:46.152Z,0
2018-01-19T13:01:54.977Z,0
2018-01-19T13:03:03.807Z,0
2018-01-19T13:04:12.910Z,0
2018-01-19T13:05:21.738Z,0
2018-01-19T13:06:30.615Z,0
2018-01-19T13:07:39.711Z,0
2018-01-19T13:08:48.543Z,0
2018-01-19T13:09:57.373Z,0
2018-01-19T13:11:06.197Z,0
2018-01-19T13:12:15.328Z,0
2018-01-19T13:13:24.169Z,0
2018-01-19T13:14:32.991Z,0
2018-01-19T13:15:42.141Z,0
2018-01-19T13:16:50.968Z,0
2018-01-19T13:18:00.126Z,0
2018-01-19T13:19:08.950Z,0
2018-01-19T13:20:17.778Z,0
2018-01-19T13:21:26.605Z,0
2018-01-19T13:22:35.431Z,0
2018-01-19T13:23:44.410Z,0
2018-01-19T13:24:53.239Z,0
2018-01-19T13:26:02.066Z,0
2018-01-19T13:27:10.897Z,0
2018-01-19T13:28:19.730Z,0
2018-01-19T13:29:28.966Z,0
2018-01-19T13:30:38.040Z,0
2018-01-19T13:31:46.867Z,0
2018-01-19T13:32:55.695Z,0
2018-01-19T13:34:04.524Z,0
2018-01-19T13:35:13.353Z,0
2018-01-19T13:36:22.181Z,0
2018-01-19T13:37:31.011Z,0
2018-01-19T13:38:39.844Z,0
2018-01-19T13:39:48.668Z,0
2018-01-19T13:40:57.596Z,0
2018-01-19T13:42:06.424Z,0
2018-01-19T13:43:15.252Z,0
2018-01-19T13:44:24.081Z,0
2018-01-19T13:45:32.911Z,0
2018-01-19T13:46:42.038Z,0
2018-01-19T13:47:50.869Z,0
2018-01-19T13:48:59.695Z,0
2018-01-19T13:50:08.524Z,1.89
2018-01-19T13:51:17.350Z,0
2018-01-19T13:52:26.428Z,0.57
2018-01-19T13:53:35.256Z,2.27
2018-01-19T13:54:44.083Z,0
2018-01-19T13:55:52.908Z,0
2018-01-19T13:57:01.738Z,0
2018-01-19T13:58:10.568Z,2.18
2018-01-19T13:59:19.398Z,4.17
2018-01-19T14:00:28.227Z,10.14
2018-01-19T14:01:37.057Z,0.57
2018-01-19T14:02:45.885Z,1.61
2018-01-19T14:03:55.008Z,5.78
2018-01-19T14:05:03.837Z,3.31
2018-01-19T14:06:12.667Z,5.59
2018-01-19T14:07:21.495Z,5.87
2018-01-19T14:08:30.325Z,5.49
2018-01-19T14:09:39.159Z,5.97
2018-01-19T14:10:47.988Z,6.73
2018-01-19T14:11:56.815Z,6.54
2018-01-19T14:13:05.644Z,4.64
2018-01-19T14:14:14.475Z,2.27
2018-01-19T14:15:23.300Z,7.2
2018-01-19T14:16:32.127Z,9.95
2018-01-19T14:17:40.953Z,10.24
2018-01-19T14:18:50.057Z,9
2018-01-19T14:19:58.882Z,10.8
2018-01-19T14:21:07.710Z,8.91
2018-01-19T14:22:16.538Z,12.13
2018-01-19T14:23:25.664Z,10.99
2018-01-19T14:24:34.490Z,10.61
2018-01-19T14:25:43.371Z,6.82
2018-01-19T14:26:52.200Z,6.35
2018-01-19T14:28:01.026Z,10.61
2018-01-19T14:29:10.004Z,7.2
2018-01-19T14:30:18.830Z,12.79
2018-01-19T14:31:27.657Z,12.6
2018-01-19T14:32:36.485Z,11.08
2018-01-19T14:33:45.312Z,6.54
2018-01-19T14:34:54.825Z,5.96
2018-01-19T14:36:03.649Z,9.76
2018-01-19T14:37:12.475Z,9.48
2018-01-19T14:38:21.304Z,11.55
2018-01-19T14:39:30.130Z,11.36
2018-01-19T14:40:39.330Z,10.14
2018-01-19T14:41:48.160Z,9.95
2018-01-19T14:42:56.986Z,8.05
2018-01-19T14:44:06.087Z,7.67
2018-01-19T14:45:14.916Z,9.09
2018-01-19T14:46:23.843Z,7.48
2018-01-19T14:47:32.671Z,6.63
2018-01-19T14:48:41.501Z,7.2
2018-01-19T14:49:50.329Z,8.91
2018-01-19T14:50:59.156Z,8.62
2018-01-19T14:52:07.985Z,9.94
2018-01-19T14:53:17.088Z,8.62
2018-01-19T14:54:25.929Z,5.96
2018-01-19T14:55:34.757Z,5.96
2018-01-19T14:56:43.584Z,7.67
2018-01-19T14:57:52.762Z,7.1
2018-01-19T14:59:01.589Z,6.92
2018-01-19T15:00:10.416Z,6.16
2018-01-19T15:01:19.245Z,4.74
2018-01-19T15:02:28.074Z,5.49
2018-01-19T15:03:37.302Z,4.26
2018-01-19T15:04:46.130Z,4.36
2018-01-19T15:05:54.967Z,1.42
2018-01-19T15:07:03.795Z,3.41
2018-01-19T15:08:12.624Z,1.7
2018-01-19T15:09:21.552Z,0.76
2018-01-19T15:10:30.580Z,3.97
2018-01-19T15:11:39.408Z,3.69
2018-01-19T15:12:48.237Z,3.97
2018-01-19T15:13:57.064Z,5.11
2018-01-19T15:15:06.094Z,9.66
2018-01-19T15:16:14.921Z,9.09
2018-01-19T15:17:23.753Z,4.64
2018-01-19T15:18:33.595Z,6.06
2018-01-19T15:19:42.749Z,11.55
2018-01-19T15:20:51.876Z,10.04
2018-01-19T15:22:00.703Z,5.49
2018-01-19T15:23:09.531Z,5.77
2018-01-19T15:24:18.360Z,5.49
2018-01-19T15:25:27.195Z,4.36
2018-01-19T15:26:36.024Z,6.73
2018-01-19T15:27:44.850Z,8.24
2018-01-19T15:28:53.675Z,9
2018-01-19T15:30:02.502Z,0.85
2018-01-19T15:31:11.329Z,4.36
2018-01-19T15:32:20.557Z,6.35
2018-01-19T15:33:29.382Z,5.49
2018-01-19T15:34:38.209Z,5.11
2018-01-19T15:35:47.035Z,5.96
2018-01-19T15:36:56.135Z,6.35
2018-01-19T15:38:05.010Z,9.56
2018-01-19T15:39:13.854Z,10.99
2018-01-19T15:40:22.727Z,10.23
2018-01-19T15:41:31.511Z,7.1
2018-01-19T15:42:40.338Z,7.48
2018-01-19T15:43:49.213Z,5.58
2018-01-19T15:44:58.043Z,6.54
2018-01-19T15:46:06.879Z,5.49
2018-01-19T15:47:15.712Z,2.56
2018-01-19T15:48:24.541Z,1.89
2018-01-19T15:49:33.366Z,4.93
2018-01-19T15:50:42.193Z,5.49
2018-01-19T15:51:51.024Z,4.45
2018-01-19T15:52:59.848Z,9.66
2018-01-19T15:54:08.675Z,6.06
2018-01-19T15:55:17.501Z,2.94
2018-01-19T15:56:26.326Z,1.61
2018-01-19T15:57:35.151Z,4.93
2018-01-19T15:58:43.977Z,1.89
2018-01-19T15:59:52.804Z,0
2018-01-19T16:01:01.633Z,1.79
2018-01-19T16:02:10.467Z,2.27
2018-01-19T16:03:19.289Z,3.59
2018-01-19T16:04:28.116Z,3.5
2018-01-19T16:05:37.217Z,3.41
2018-01-19T16:06:46.046Z,4.26
2018-01-19T16:07:54.874Z,5.49
2018-01-19T16:09:03.699Z,8.05
2018-01-19T16:10:12.528Z,5.77
2018-01-19T16:11:21.352Z,6.35
2018-01-19T16:12:30.289Z,5.58
2018-01-19T16:13:39.117Z,2.75
2018-01-19T16:14:47.944Z,1.98
2018-01-19T16:15:56.771Z,0.47
2018-01-19T16:17:05.596Z,4.45
2018-01-19T16:18:14.423Z,4.64
2018-01-19T16:19:23.249Z,5.68
2018-01-19T16:20:32.076Z,4.26
2018-01-19T16:21:40.903Z,3.41
2018-01-19T16:22:49.735Z,4.55
2018-01-19T16:23:58.713Z,5.49
2018-01-19T16:25:07.538Z,5.96
2018-01-19T16:26:16.366Z,8.24
2018-01-19T16:27:25.192Z,5.68
2018-01-19T16:28:34.019Z,8.24
2018-01-19T16:29:42.845Z,7.67
2018-01-19T16:30:51.670Z,5.3
2018-01-19T16:32:00.501Z,5.21
2018-01-19T16:33:09.332Z,8.24
2018-01-19T16:34:18.157Z,9.09
2018-01-19T16:35:27.361Z,7.29
2018-01-19T16:36:36.188Z,8.05
2018-01-19T16:37:45.015Z,7.67
2018-01-19T16:38:53.846Z,9.28
2018-01-19T16:40:02.669Z,10.42